Time;durP1;ratioP1;P1;durP2;ratioP2;P2;SDS_P1;SDS_P2;PMS_P1;PMS_P2;Temp;Humidity;BMP_temperature;BMP_pressure;BME280_temperature;BME280_humidity;BME280_pressure;Samples;Min_cycle;Max_cycle;Signal;HPM_P1;HPM_P2
2022/08/22 00:01:41;;;;;;;;;;;;;;;23.38;51.37;101143.50;4970399;28;4324;-61
2022/08/22 00:04:27;;;;;;;;;;;;;;;23.40;51.36;101137.09;4970454;28;4087;-64
2022/08/22 00:07:01;;;;;;;;;;;;;;;23.38;50.96;101134.84;4972101;28;4208;-61
2022/08/22 00:09:34;;;;;;;;;;;;;;;23.35;51.17;101136.19;4971145;28;5341;-64
2022/08/22 00:12:07;;;;;;;;;;;;;;;23.35;51.22;101138.34;4972346;28;4128;-62
2022/08/22 00:14:39;;;;;;;;;;;;;;;23.34;51.27;101142.63;4970907;28;4376;-61
2022/08/22 00:17:39;;;;;;;;;;;;;;;23.28;51.20;101137.34;4988960;28;4093;-63
2022/08/22 00:20:14;;;;;;;;;;;;;;;23.32;51.24;101136.75;4967076;28;4675;-61
2022/08/22 00:22:46;;;;;;;;;;;;;;;23.28;51.21;101131.59;4970339;28;4260;-63
2022/08/22 00:25:24;;;;;;;;;;;;;;;23.30;51.08;101128.78;4972513;28;4287;-62
2022/08/22 00:28:17;;;;;;;;;;;;;;;23.29;51.08;101127.28;4975392;28;4205;-63
2022/08/22 00:30:55;;;;;;;;;;;;;;;23.30;51.10;101123.00;4969168;28;4247;-62
2022/08/22 00:33:31;;;;;;;;;;;;;;;23.29;51.15;101133.06;4970635;28;4119;-64
2022/08/22 00:36:02;;;;;;;;;;;;;;;23.30;51.07;101130.94;4972313;28;5335;-63
2022/08/22 00:38:37;;;;;;;;;;;;;;;23.26;50.98;101137.28;4975274;28;4331;-63
2022/08/22 00:41:11;;;;;;;;;;;;;;;23.28;51.17;101130.84;4972187;28;4286;-61
2022/08/22 00:43:53;;;;;;;;;;;;;;;23.29;50.98;101130.16;4968039;28;5161;-64
2022/08/22 00:46:19;;;;;;;;;;;;;;;23.26;50.92;101140.16;4964515;28;4267;-62
2022/08/22 00:49:04;;;;;;;;;;;;;;;23.24;50.71;101134.31;4971416;28;4194;-61
2022/08/22 00:51:48;;;;;;;;;;;;;;;23.21;50.72;101141.41;4971097;28;4217;-62
2022/08/22 00:54:32;;;;;;;;;;;;;;;23.22;50.70;101134.22;4973719;28;4592;-61
2022/08/22 00:57:05;;;;;;;;;;;;;;;23.21;50.85;101141.41;4972121;28;5165;-63
2022/08/22 00:59:51;;;;;;;;;;;;;;;23.21;50.66;101133.50;4974575;28;4439;-60
2022/08/22 01:02:41;;;;;;;;;;;;;;;23.20;50.68;101140.69;4972756;28;4191;-63
2022/08/22 01:05:20;;;;;;;;;;;;;;;23.21;50.44;101141.41;4975269;28;4131;-60
2022/08/22 01:08:04;;;;;;;;;;;;;;;23.21;50.59;101138.53;4973846;28;5068;-64
2022/08/22 01:10:43;;;;;;;;;;;;;;;23.13;50.77;101135.31;4972771;28;5354;-61
2022/08/22 01:13:13;;;;;;;;;;;;;;;23.14;50.64;101136.81;4971246;28;5270;-63
2022/08/22 01:15:40;;;;;;;;;;;;;;;23.14;50.45;101128.88;4979143;28;4391;-60
2022/08/22 01:18:07;;;;;;;;;;;;;;;23.13;50.71;101138.19;4969105;28;4156;-62
2022/08/22 01:20:52;;;;;;;;;;;;;;;23.11;50.75;101141.00;4971619;28;5728;-64
2022/08/22 01:23:18;;;;;;;;;;;;;;;23.13;50.46;101144.72;4972155;28;5340;-60
2022/08/22 01:26:03;;;;;;;;;;;;;;;23.13;50.67;101155.53;4966737;28;4354;-63
2022/08/22 01:28:43;;;;;;;;;;;;;;;23.13;50.40;101156.28;4964300;28;4212;-61
2022/08/22 01:31:29;;;;;;;;;;;;;;;23.10;50.32;101153.97;4970571;28;5665;-63
2022/08/22 01:34:31;;;;;;;;;;;;;;;23.05;50.40;101152.34;4969695;28;4432;-61
2022/08/22 01:37:17;;;;;;;;;;;;;;;23.07;50.07;101152.41;4923670;29;4758;-63
2022/08/22 01:39:50;;;;;;;;;;;;;;;23.11;50.20;101161.22;4970589;28;4341;-61
2022/08/22 01:42:26;;;;;;;;;;;;;;;23.05;50.43;101163.88;4971487;28;4002;-64
2022/08/22 01:44:57;;;;;;;;;;;;;;;23.06;50.34;101168.25;4973794;28;4096;-61
2022/08/22 01:47:29;;;;;;;;;;;;;;;23.07;50.03;101158.19;4973352;28;4347;-61
2022/08/22 01:50:16;;;;;;;;;;;;;;;23.03;49.90;101158.78;4968800;28;4217;-64
2022/08/22 01:52:44;;;;;;;;;;;;;;;23.06;49.71;101159.59;4974773;28;4213;-60
2022/08/22 01:55:29;;;;;;;;;;;;;;;23.07;49.74;101164.72;4971756;28;4271;-63
2022/08/22 01:57:56;;;;;;;;;;;;;;;23.05;49.91;101161.00;4969552;28;4145;-62
2022/08/22 02:00:26;;;;;;;;;;;;;;;23.07;49.98;101152.41;4972971;28;4793;-62
2022/08/22 02:03:20;;;;;;;;;;;;;;;23.02;49.95;101156.53;4979449;28;4133;-61
2022/08/22 02:06:02;;;;;;;;;;;;;;;22.98;50.32;101157.09;4970087;28;4130;-63
2022/08/22 02:08:47;;;;;;;;;;;;;;;22.94;50.34;101146.13;4970232;28;4167;-60
2022/08/22 02:11:36;;;;;;;;;;;;;;;22.96;50.50;101157.00;4969166;28;4154;-63
2022/08/22 02:14:12;;;;;;;;;;;;;;;22.97;50.24;101152.72;4968906;28;4108;-61
2022/08/22 02:16:42;;;;;;;;;;;;;;;22.97;50.25;101144.78;4970798;28;4171;-63
2022/08/22 02:19:10;;;;;;;;;;;;;;;22.98;49.89;101152.06;4973086;28;4061;-61
2022/08/22 02:21:39;;;;;;;;;;;;;;;22.99;49.69;101150.66;4987193;28;4112;-61
2022/08/22 02:24:15;;;;;;;;;;;;;;;22.96;49.64;101160.63;4972079;28;4352;-63
2022/08/22 02:26:46;;;;;;;;;;;;;;;22.96;49.70;101154.13;4972336;28;4332;-61
2022/08/22 02:29:13;;;;;;;;;;;;;;;22.93;50.03;101156.19;4985266;28;5016;-63
2022/08/22 02:31:41;;;;;;;;;;;;;;;22.93;49.97;101150.41;4976317;28;4180;-61
2022/08/22 02:34:34;;;;;;;;;;;;;;;22.90;49.95;101156.75;4969512;28;4140;-61
2022/08/22 02:37:05;;;;;;;;;;;;;;;22.92;49.78;101148.91;4969026;28;4099;-64
2022/08/22 02:39:40;;;;;;;;;;;;;;;22.89;49.71;101156.03;4971192;28;4180;-61
2022/08/22 02:42:23;;;;;;;;;;;;;;;22.90;49.55;101157.50;4970304;28;4418;-63
2022/08/22 02:45:08;;;;;;;;;;;;;;;22.88;49.76;101142.97;4987362;28;4188;-61
2022/08/22 02:47:39;;;;;;;;;;;;;;;22.89;49.41;101152.41;4969769;28;4644;-63
2022/08/22 02:50:09;;;;;;;;;;;;;;;22.87;49.55;101152.31;4974160;28;4577;-60
2022/08/22 02:52:41;;;;;;;;;;;;;;;22.88;49.70;101142.97;4974186;28;4261;-62
2022/08/22 02:55:20;;;;;;;;;;;;;;;22.86;49.41;101148.69;4969989;28;4434;-61
2022/08/22 02:57:51;;;;;;;;;;;;;;;22.87;49.31;101147.28;4965506;28;4524;-63
2022/08/22 03:00:21;;;;;;;;;;;;;;;22.86;49.40;101142.91;4985444;28;4116;-62
2022/08/22 03:02:58;;;;;;;;;;;;;;;22.86;49.59;101147.91;4969650;28;4250;-64
2022/08/22 03:05:26;;;;;;;;;;;;;;;22.88;49.59;101148.75;4970077;28;4124;-63
2022/08/22 03:07:55;;;;;;;;;;;;;;;22.83;49.66;101147.09;4967745;28;4140;-61
2022/08/22 03:10:24;;;;;;;;;;;;;;;22.80;49.79;101142.66;4987230;28;4165;-63
2022/08/22 03:13:00;;;;;;;;;;;;;;;22.77;49.63;101138.22;4974372;28;4212;-63
2022/08/22 03:15:30;;;;;;;;;;;;;;;22.79;49.50;101147.69;4969620;28;4354;-60
2022/08/22 03:18:00;;;;;;;;;;;;;;;22.75;49.82;101146.78;4966438;28;4191;-63
2022/08/22 03:20:46;;;;;;;;;;;;;;;22.76;49.51;101148.25;4971327;28;5202;-61
2022/08/22 03:23:24;;;;;;;;;;;;;;;22.79;49.73;101141.16;4970692;28;4196;-63
2022/08/22 03:25:54;;;;;;;;;;;;;;;22.75;49.43;101138.13;4988229;28;4109;-61
2022/08/22 03:28:23;;;;;;;;;;;;;;;22.74;49.68;101134.47;4970955;28;4095;-60
2022/08/22 03:30:49;;;;;;;;;;;;;;;22.75;49.32;101135.25;4975909;28;4058;-63
2022/08/22 03:33:15;;;;;;;;;;;;;;;22.75;49.45;101135.25;4974571;28;4050;-62
2022/08/22 03:35:45;;;;;;;;;;;;;;;22.75;49.35;101130.19;4975526;28;4290;-62
2022/08/22 03:38:30;;;;;;;;;;;;;;;22.77;49.57;101132.44;4970239;28;4179;-63
2022/08/22 03:41:15;;;;;;;;;;;;;;;22.73;49.45;101133.00;4973349;28;4212;-61
2022/08/22 03:44:00;;;;;;;;;;;;;;;22.74;49.78;101137.34;4974582;28;4291;-64
2022/08/22 03:46:32;;;;;;;;;;;;;;;22.71;49.83;101140.84;4972664;28;4272;-61
2022/08/22 03:49:31;;;;;;;;;;;;;;;22.67;49.48;101129.13;4969862;28;4204;-63
2022/08/22 03:52:08;;;;;;;;;;;;;;;22.69;49.40;101126.31;4959085;28;4211;-61
2022/08/22 03:54:47;;;;;;;;;;;;;;;22.66;49.46;101133.41;4969711;28;4257;-63
2022/08/22 03:57:32;;;;;;;;;;;;;;;22.64;49.48;101136.22;4973280;28;4207;-61
2022/08/22 04:00:05;;;;;;;;;;;;;;;22.65;49.49;101143.47;4968877;28;4683;-63
2022/08/22 04:02:36;;;;;;;;;;;;;;;22.63;49.68;101144.16;4986885;28;4263;-60
2022/08/22 04:05:24;;;;;;;;;;;;;;;22.66;49.26;101156.50;4975755;28;4340;-64
2022/08/22 04:08:09;;;;;;;;;;;;;;;22.66;49.46;101156.50;4972796;28;6301;-61
2022/08/22 04:10:56;;;;;;;;;;;;;;;22.62;49.57;101162.13;4973891;28;5278;-64
2022/08/22 04:13:46;;;;;;;;;;;;;;;22.59;49.39;101159.13;4974802;28;4201;-60
2022/08/22 04:16:12;;;;;;;;;;;;;;;22.62;49.45;101162.13;4973093;28;4225;-63
2022/08/22 04:18:51;;;;;;;;;;;;;;;22.63;49.60;101163.59;4976349;28;4242;-60
2022/08/22 04:21:27;;;;;;;;;;;;;;;22.62;49.49;101162.13;4974265;28;4284;-61
2022/08/22 04:23:53;;;;;;;;;;;;;;;22.59;49.59;101149.75;4973571;28;4209;-63
2022/08/22 04:26:20;;;;;;;;;;;;;;;22.59;49.62;101164.91;4976455;28;4328;-60
2022/08/22 04:28:48;;;;;;;;;;;;;;;22.58;50.01;101169.19;4970544;28;4444;-63
2022/08/22 04:31:16;;;;;;;;;;;;;;;22.56;50.12;101166.22;4974134;28;4116;-63
2022/08/22 04:33:48;;;;;;;;;;;;;;;22.54;50.22;101171.16;4964269;28;5197;-61
2022/08/22 04:36:22;;;;;;;;;;;;;;;22.51;50.65;101181.88;4976041;28;4288;-64
2022/08/22 04:39:01;;;;;;;;;;;;;;;22.05;51.88;101184.19;4985649;28;5372;-60
2022/08/22 04:41:45;;;;;;;;;;;;;;;21.64;52.72;101181.59;4960499;28;4280;-72
2022/08/22 04:44:34;;;;;;;;;;;;;;;21.36;53.43;101189.63;4971937;28;4302;-64
2022/08/22 04:47:02;;;;;;;;;;;;;;;21.46;53.81;101190.91;4968498;28;6117;-68
2022/08/22 04:49:33;;;;;;;;;;;;;;;21.89;52.62;101189.22;4986510;28;4336;-68
2022/08/22 04:52:05;;;;;;;;;;;;;;;22.16;51.88;101191.91;4978083;28;4278;-66
2022/08/22 04:54:36;;;;;;;;;;;;;;;22.30;51.79;101197.56;4976635;28;4518;-66
2022/08/22 04:57:07;;;;;;;;;;;;;;;22.38;51.58;101192.16;4993086;28;5718;-65
2022/08/22 04:59:33;;;;;;;;;;;;;;;22.45;51.23;101198.19;4991203;28;4274;-68
2022/08/22 05:02:05;;;;;;;;;;;;;;;22.47;51.32;101199.03;4977811;28;4095;-66
2022/08/22 05:04:34;;;;;;;;;;;;;;;22.47;51.08;101199.03;4978520;28;4169;-68
2022/08/22 05:07:06;;;;;;;;;;;;;;;22.47;51.42;101199.03;4990525;28;4451;-66
2022/08/22 05:09:34;;;;;;;;;;;;;;;22.47;51.37;101199.03;4974627;28;5278;-68
2022/08/22 05:12:02;;;;;;;;;;;;;;;22.47;51.57;101199.03;4975881;28;4137;-65
2022/08/22 05:14:37;;;;;;;;;;;;;;;22.49;51.52;101201.97;4991526;28;4332;-67
2022/08/22 05:17:04;;;;;;;;;;;;;;;22.50;51.80;101209.25;4971094;28;4187;-67
2022/08/22 05:19:33;;;;;;;;;;;;;;;22.50;51.75;101203.47;4978151;28;4295;-68
2022/08/22 05:21:59;;;;;;;;;;;;;;;22.50;51.96;101209.25;4975411;28;4152;-67
2022/08/22 05:24:34;;;;;;;;;;;;;;;22.45;52.08;101207.59;4982990;28;4130;-68
2022/08/22 05:27:03;;;;;;;;;;;;;;;22.48;52.15;101206.28;4975926;28;4197;-68
2022/08/22 05:29:29;;;;;;;;;;;;;;;22.46;52.60;101209.06;4977327;28;4215;-68
2022/08/22 05:32:00;;;;;;;;;;;;;;;22.44;52.62;101211.88;4977338;28;5042;-68
2022/08/22 05:34:27;;;;;;;;;;;;;;;22.43;52.71;101216.16;4976660;28;4439;-67
2022/08/22 05:36:54;;;;;;;;;;;;;;;22.43;53.00;101221.94;4977547;28;4252;-68
2022/08/22 05:39:24;;;;;;;;;;;;;;;22.42;52.78;101219.69;4974843;28;4384;-67
2022/08/22 05:41:53;;;;;;;;;;;;;;;22.41;53.18;101224.72;4976049;28;5402;-68
2022/08/22 05:44:24;;;;;;;;;;;;;;;22.44;53.04;101222.69;4973469;28;4173;-68
2022/08/22 05:46:53;;;;;;;;;;;;;;;22.45;53.45;101213.38;4976764;28;4162;-67
2022/08/22 05:49:21;;;;;;;;;;;;;;;22.43;53.25;101218.31;4975889;28;4307;-68
2022/08/22 05:51:54;;;;;;;;;;;;;;;22.44;53.40;101229.19;4975543;28;4180;-67
2022/08/22 05:54:22;;;;;;;;;;;;;;;22.44;53.58;101220.53;4982100;28;4228;-67
2022/08/22 05:57:07;;;;;;;;;;;;;;;22.43;53.89;101227.72;4978043;28;4214;-66
2022/08/22 05:59:34;;;;;;;;;;;;;;;22.44;53.76;101234.97;4979529;28;4354;-67
2022/08/22 06:02:17;;;;;;;;;;;;;;;22.42;54.01;101231.97;4980344;28;4465;-66
2022/08/22 06:04:45;;;;;;;;;;;;;;;22.41;54.08;101233.38;4990131;28;4363;-66
2022/08/22 06:07:17;;;;;;;;;;;;;;;22.42;54.17;101234.88;4988772;28;4405;-67
2022/08/22 06:09:46;;;;;;;;;;;;;;;22.42;54.77;101231.97;4974916;28;5672;-66
2022/08/22 06:12:13;;;;;;;;;;;;;;;22.41;55.06;101239.16;4974496;28;4088;-66
2022/08/22 06:15:16;;;;;;;;;;;;;;;22.38;55.23;101237.59;4976879;28;4380;-66
2022/08/22 06:17:46;;;;;;;;;;;;;;;22.39;55.30;101244.84;4972183;28;4189;-66
2022/08/22 06:20:15;;;;;;;;;;;;;;;22.44;55.24;101240.72;4975032;28;5463;-67
2022/08/22 06:22:42;;;;;;;;;;;;;;;22.48;55.33;101246.69;4989455;28;4559;-67
2022/08/22 06:25:13;;;;;;;;;;;;;;;22.44;55.75;101237.84;4976761;28;4101;-67
2022/08/22 06:27:39;;;;;;;;;;;;;;;22.45;56.19;101242.22;4975908;28;4208;-67
2022/08/22 06:30:06;;;;;;;;;;;;;;;22.47;56.16;101236.56;4988510;28;5254;-66
2022/08/22 06:32:32;;;;;;;;;;;;;;;22.48;56.32;101243.78;4971761;28;4230;-66
2022/08/22 06:36:29;;;;;;;;;;;;;;;22.47;56.72;101250.22;4972413;28;4212;-67
2022/08/22 06:38:16;;;;;;;;;;;;;;;22.46;57.31;101249.47;4973515;28;4433;-66
2022/08/22 06:40:42;;;;;;;;;;;;;;;22.47;56.82;101239.44;4975041;28;4438;-60
2022/08/22 06:43:09;;;;;;;;;;;;;;;21.65;61.20;101240.75;4977023;28;6235;-59
2022/08/22 06:45:35;;;;;;;;;;;;;;;21.31;62.51;101243.44;4973796;28;4123;-61
2022/08/22 06:48:04;;;;;;;;;;;;;;;21.20;63.41;101252.97;4991046;28;4013;-60
2022/08/22 06:50:32;;;;;;;;;;;;;;;20.93;64.64;101255.25;4976869;28;4162;-61
2022/08/22 06:53:14;;;;;;;;;;;;;;;21.00;64.86;101253.44;4989020;28;5556;-61
2022/08/22 06:55:42;;;;;;;;;;;;;;;21.01;65.45;101245.56;4975497;28;4029;-61
2022/08/22 06:58:25;;;;;;;;;;;;;;;21.29;64.88;101261.34;4990200;28;4012;-68
2022/08/22 07:01:00;;;;;;;;;;;;;;;21.14;65.34;101264.91;4975567;28;4287;-60
2022/08/22 07:03:38;;;;;;;;;;;;;;;21.03;65.53;101257.94;4974356;28;4272;-61
2022/08/22 07:06:05;;;;;;;;;;;;;;;21.21;65.06;101258.09;4989600;28;3988;-61
2022/08/22 07:08:32;;;;;;;;;;;;;;;21.06;65.95;101261.66;4982209;28;4198;-50
2022/08/22 07:11:04;;;;;;;;;;;;;;;21.09;66.42;101254.59;4990024;28;4176;-59
2022/08/22 07:13:30;;;;;;;;;;;;;;;21.12;66.69;101265.56;4975106;28;5420;-60
2022/08/22 07:15:58;;;;;;;;;;;;;;;21.13;66.42;101263.44;4974797;28;4110;-60
2022/08/22 07:18:26;;;;;;;;;;;;;;;21.28;66.49;101262.75;4974760;28;5125;-60
2022/08/22 07:20:53;;;;;;;;;;;;;;;21.26;66.48;101264.78;4975610;28;4470;-59
2022/08/22 07:23:30;;;;;;;;;;;;;;;21.26;66.92;101265.53;4973448;28;4129;-61
2022/08/22 07:26:16;;;;;;;;;;;;;;;21.37;67.33;101268.91;4987927;28;4599;-59
2022/08/22 07:28:42;;;;;;;;;;;;;;;21.42;67.23;101268.50;4973528;28;4788;-61
2022/08/22 07:31:32;;;;;;;;;;;;;;;21.55;67.24;101284.22;4972941;28;4206;-65
2022/08/22 07:34:14;;;;;;;;;;;;;;;21.63;66.36;101281.00;4971341;28;4239;-61
2022/08/22 07:37:00;;;;;;;;;;;;;;;21.67;65.07;101273.28;4986418;28;6023;-61
2022/08/22 07:39:28;;;;;;;;;;;;;;;21.66;65.16;101271.78;4973500;28;4637;-61
2022/08/22 07:41:58;;;;;;;;;;;;;;;21.61;65.57;101270.09;4973573;28;5729;-62
2022/08/22 07:44:27;;;;;;;;;;;;;;;21.94;64.22;101277.38;4973986;28;4469;-62
2022/08/22 07:46:55;;;;;;;;;;;;;;;22.07;63.98;101279.44;4971262;28;4576;-62
2022/08/22 07:49:23;;;;;;;;;;;;;;;22.15;64.10;101271.19;4974376;28;4120;-63
2022/08/22 07:51:57;;;;;;;;;;;;;;;22.21;63.98;101275.72;4973722;28;4582;-62
2022/08/22 07:54:34;;;;;;;;;;;;;;;22.25;63.28;101276.69;4974342;28;4089;-63
2022/08/22 07:57:02;;;;;;;;;;;;;;;22.27;62.66;101273.16;4973971;28;4156;-63
2022/08/22 07:59:29;;;;;;;;;;;;;;;22.30;62.55;101278.34;4974081;28;5489;-63
2022/08/22 08:01:55;;;;;;;;;;;;;;;22.33;61.81;101276.28;4988364;28;4020;-63
2022/08/22 08:04:29;;;;;;;;;;;;;;;22.34;61.74;101277.81;4986344;28;4267;-63
2022/08/22 08:06:56;;;;;;;;;;;;;;;22.35;61.79;101282.16;4990906;28;5457;-63
2022/08/22 08:09:22;;;;;;;;;;;;;;;22.37;61.18;101276.47;4978319;28;4446;-63
2022/08/22 08:11:50;;;;;;;;;;;;;;;22.39;60.87;101279.47;4976124;28;4233;-62
2022/08/22 08:14:16;;;;;;;;;;;;;;;22.38;60.75;101286.66;4979110;28;5299;-62
2022/08/22 08:16:53;;;;;;;;;;;;;;;22.41;60.70;101276.66;4987743;28;5392;-63
2022/08/22 08:19:20;;;;;;;;;;;;;;;22.45;60.65;101281.88;4977630;28;4820;-61
2022/08/22 08:21:48;;;;;;;;;;;;;;;22.48;60.45;101275.53;4975866;28;4127;-61
2022/08/22 08:24:16;;;;;;;;;;;;;;;22.50;60.24;101275.63;4978955;28;4139;-61
2022/08/22 08:29:29;;;;;;;;;;;;;;;22.54;60.30;101281.59;4979103;28;4134;-62
2022/08/22 08:31:55;;;;;;;;;;;;;;;22.55;60.13;101285.94;4993199;28;6624;-61
2022/08/22 08:34:23;;;;;;;;;;;;;;;22.58;60.37;101278.13;4977454;28;4971;-60
2022/08/22 08:36:50;;;;;;;;;;;;;;;22.59;60.32;101280.38;4977172;28;5128;-61
2022/08/22 08:39:21;;;;;;;;;;;;;;;22.61;59.98;101281.84;4975471;28;4165;-61
2022/08/22 08:41:57;;;;;;;;;;;;;;;22.63;59.49;101270.38;4977810;28;4125;-61
2022/08/22 08:44:23;;;;;;;;;;;;;;;22.69;59.28;101280.06;4978163;28;4218;-62
2022/08/22 08:47:11;;;;;;;;;;;;;;;22.73;59.38;101276.63;4977510;28;4115;-61
2022/08/22 08:49:41;;;;;;;;;;;;;;;22.77;59.15;101271.03;4973692;28;5640;-63
2022/08/22 08:52:17;;;;;;;;;;;;;;;22.83;59.23;101262.59;4992705;28;4090;-61
2022/08/22 08:54:44;;;;;;;;;;;;;;;22.84;58.99;101269.88;4978450;28;4112;-62
2022/08/22 08:57:29;;;;;;;;;;;;;;;22.83;59.09;101261.88;4977385;28;4142;-62
2022/08/22 09:00:01;;;;;;;;;;;;;;;22.83;59.23;101267.63;4989296;28;4394;-62
2022/08/22 09:02:27;;;;;;;;;;;;;;;22.82;59.15;101260.38;4983364;28;4068;-63
2022/08/22 09:05:14;;;;;;;;;;;;;;;22.82;59.04;101266.16;4977808;28;5283;-63
2022/08/22 09:07:50;;;;;;;;;;;;;;;22.82;58.48;101266.91;4989480;28;4589;-62
2022/08/22 09:10:21;;;;;;;;;;;;;;;22.82;58.13;101261.13;4974510;28;4348;-61
2022/08/22 09:13:05;;;;;;;;;;;;;;;22.83;57.74;101267.63;4976375;28;4075;-63
2022/08/22 09:15:56;;;;;;;;;;;;;;;22.86;57.51;101272.09;4975154;28;4080;-63
2022/08/22 09:18:40;;;;;;;;;;;;;;;22.86;57.50;101275.75;4978130;28;4728;-63
2022/08/22 09:21:10;;;;;;;;;;;;;;;22.87;57.51;101274.31;4974953;28;4825;-63
2022/08/22 09:23:46;;;;;;;;;;;;;;;22.87;57.11;101268.56;4977862;28;4137;-62
2022/08/22 09:26:23;;;;;;;;;;;;;;;22.89;57.08;101271.53;4983617;28;4318;-61
2022/08/22 09:28:52;;;;;;;;;;;;;;;22.90;56.85;101266.50;4991964;28;4430;-62
2022/08/22 09:31:27;;;;;;;;;;;;;;;22.90;56.99;101267.22;4972734;28;4380;-68
2022/08/22 09:34:26;;;;;;;;;;;;;;;22.89;56.89;101271.53;4975194;28;4317;-67
2022/08/22 09:37:10;;;;;;;;;;;;;;;22.90;56.59;101270.13;4976044;28;4190;-62
2022/08/22 09:39:45;;;;;;;;;;;;;;;22.91;57.14;101280.28;4978409;28;4539;-63
2022/08/22 09:42:30;;;;;;;;;;;;;;;22.91;57.16;101274.50;4977623;28;4174;-64
2022/08/22 09:45:14;;;;;;;;;;;;;;;22.94;57.18;101273.19;4978033;28;4042;-64
2022/08/22 09:47:43;;;;;;;;;;;;;;;22.95;57.56;101271.78;4974767;28;4383;-67
2022/08/22 09:50:14;;;;;;;;;;;;;;;22.97;57.04;101271.13;4980892;28;4088;-62
2022/08/22 09:52:48;;;;;;;;;;;;;;;23.00;56.73;101267.69;4991200;28;5268;-61
2022/08/22 09:55:21;;;;;;;;;;;;;;;22.99;57.09;101263.31;4978680;28;5348;-63
2022/08/22 09:58:03;;;;;;;;;;;;;;;23.01;56.85;101271.31;4976338;28;4711;-63
2022/08/22 10:00:32;;;;;;;;;;;;;;;23.04;56.09;101269.25;4970794;28;5405;-63
2022/08/22 10:03:11;;;;;;;;;;;;;;;23.04;56.42;101266.38;4975832;28;4074;-63
2022/08/22 10:05:52;;;;;;;;;;;;;;;23.04;56.34;101270.00;4977675;28;4430;-63
2022/08/22 10:08:20;;;;;;;;;;;;;;;23.05;55.80;101270.75;4990360;28;5599;-63
2022/08/22 10:10:53;;;;;;;;;;;;;;;23.06;55.45;101272.22;4975676;28;4165;-63
2022/08/22 10:13:30;;;;;;;;;;;;;;;23.06;56.11;101278.00;4972545;28;4257;-63
2022/08/22 10:16:16;;;;;;;;;;;;;;;23.05;56.17;101285.19;4982037;28;4048;-63
2022/08/22 10:18:54;;;;;;;;;;;;;;;23.07;55.99;101279.50;4980101;28;4144;-63
2022/08/22 10:21:41;;;;;;;;;;;;;;;23.06;55.96;101278.75;4977391;28;4556;-65
2022/08/22 10:24:07;;;;;;;;;;;;;;;23.08;56.18;101275.94;4990962;28;4353;-64
2022/08/22 10:26:40;;;;;;;;;;;;;;;23.08;56.14;101264.41;4974571;28;4225;-63
2022/08/22 10:29:30;;;;;;;;;;;;;;;23.11;56.26;101282.56;4986611;28;4118;-62
2022/08/22 10:31:58;;;;;;;;;;;;;;;23.14;56.70;101281.25;4969016;28;4398;-62
2022/08/22 10:34:29;;;;;;;;;;;;;;;23.15;56.90;101279.84;4975363;28;4062;-63
2022/08/22 10:36:59;;;;;;;;;;;;;;;23.14;56.66;101272.59;4979978;28;4133;-62
2022/08/22 10:39:27;;;;;;;;;;;;;;;23.16;57.05;101273.41;4985540;28;4087;-64
2022/08/22 10:42:15;;;;;;;;;;;;;;;23.16;56.85;101279.19;4974623;28;5245;-62
2022/08/22 10:44:58;;;;;;;;;;;;;;;23.21;56.61;101271.44;4973727;28;4019;-64
2022/08/22 10:47:28;;;;;;;;;;;;;;;23.23;56.64;101271.53;4975595;28;4768;-63
2022/08/22 10:50:09;;;;;;;;;;;;;;;23.22;56.74;101272.91;4976316;28;4726;-64
2022/08/22 10:52:42;;;;;;;;;;;;;;;23.24;55.86;101267.22;4973623;28;4393;-64
2022/08/22 10:55:12;;;;;;;;;;;;;;;23.25;55.05;101262.94;4976069;28;4216;-66
2022/08/22 10:57:57;;;;;;;;;;;;;;;23.27;55.13;101268.03;4973127;28;4616;-70
2022/08/22 11:00:30;;;;;;;;;;;;;;;23.29;54.89;101265.97;4969303;28;5452;-60
2022/08/22 11:03:05;;;;;;;;;;;;;;;23.32;54.91;101263.91;4973530;28;4986;-64
2022/08/22 11:05:43;;;;;;;;;;;;;;;23.31;54.96;101260.28;4970859;28;4489;-64
2022/08/22 11:08:17;;;;;;;;;;;;;;;23.36;53.43;101261.19;4973911;28;4031;-64
2022/08/22 11:10:58;;;;;;;;;;;;;;;23.39;54.08;101251.22;4989610;28;4250;-62
2022/08/22 11:13:32;;;;;;;;;;;;;;;23.38;54.05;101267.78;4973714;28;4159;-63
2022/08/22 11:16:17;;;;;;;;;;;;;;;23.46;54.06;101263.75;4971761;28;4817;-67
2022/08/22 11:18:43;;;;;;;;;;;;;;;23.45;53.10;101265.16;4976303;28;4102;-72
2022/08/22 11:21:45;;;;;;;;;;;;;;;23.44;53.96;101263.66;4972535;28;4345;-67
2022/08/22 11:24:11;;;;;;;;;;;;;;;23.60;53.88;101258.53;4981471;28;4241;-60
2022/08/22 11:27:16;;;;;;;;;;;;;;;23.71;51.21;101262.53;4974743;28;4164;-65
2022/08/22 11:30:04;;;;;;;;;;;;;;;23.65;50.98;101263.06;4972589;28;4178;-60
2022/08/22 11:32:45;;;;;;;;;;;;;;;23.52;50.60;101255.31;4988481;28;5343;-67
2022/08/22 11:35:22;;;;;;;;;;;;;;;23.72;51.37;101261.88;4974930;28;4264;-65
2022/08/22 11:37:57;;;;;;;;;;;;;;;23.84;51.18;101255.84;4970227;28;4264;-62
2022/08/22 11:40:32;;;;;;;;;;;;;;;23.90;51.25;101253.22;4990278;28;5283;-63
2022/08/22 11:43:26;;;;;;;;;;;;;;;23.76;51.04;101253.41;4978136;28;4857;-62
2022/08/22 11:45:58;;;;;;;;;;;;;;;23.92;51.10;101261.22;4973889;28;4651;-62
2022/08/22 11:48:26;;;;;;;;;;;;;;;24.06;49.77;101255.22;4990749;28;4217;-59
2022/08/22 11:51:00;;;;;;;;;;;;;;;23.94;49.48;101250.47;4993411;28;4255;-67
2022/08/22 11:53:31;;;;;;;;;;;;;;;23.73;50.25;101251.81;4977875;28;4056;-61
2022/08/22 11:56:12;;;;;;;;;;;;;;;23.68;50.47;101258.84;4978657;28;4127;-66
2022/08/22 11:58:48;;;;;;;;;;;;;;;23.63;50.28;101254.31;4991217;28;4195;-64
2022/08/22 12:01:20;;;;;;;;;;;;;;;23.61;49.63;101243.41;4978277;28;4235;-65
2022/08/22 12:03:50;;;;;;;;;;;;;;;23.60;49.75;101255.66;4994434;28;4202;-65
2022/08/22 12:06:44;;;;;;;;;;;;;;;23.58;47.83;101253.41;4979936;28;4134;-66
2022/08/22 12:09:12;;;;;;;;;;;;;;;23.59;47.34;101251.25;4978684;28;4445;-66
2022/08/22 12:11:57;;;;;;;;;;;;;;;23.57;46.81;101249.03;4980225;28;4253;-65
2022/08/22 12:14:45;;;;;;;;;;;;;;;23.58;46.76;101244.72;4980537;28;4373;-65
2022/08/22 12:17:17;;;;;;;;;;;;;;;23.59;46.73;101248.38;4979278;28;4167;-66
2022/08/22 12:20:07;;;;;;;;;;;;;;;23.58;47.46;101238.22;4983059;28;4183;-65
2022/08/22 12:22:55;;;;;;;;;;;;;;;23.57;47.30;101236.72;4979344;28;4328;-66
2022/08/22 12:25:30;;;;;;;;;;;;;;;23.59;47.49;101236.78;4980320;28;4103;-65
2022/08/22 12:28:05;;;;;;;;;;;;;;;23.60;47.15;101235.41;4984742;28;4168;-65
2022/08/22 12:31:06;;;;;;;;;;;;;;;23.61;47.11;101234.00;4979686;28;4217;-67
2022/08/22 12:33:42;;;;;;;;;;;;;;;23.65;45.40;101228.38;4967187;28;4245;-66
2022/08/22 12:36:15;;;;;;;;;;;;;;;23.66;45.96;101232.72;4980751;28;4201;-66
2022/08/22 12:38:58;;;;;;;;;;;;;;;23.66;45.12;101232.00;4979281;28;4215;-65
2022/08/22 12:41:31;;;;;;;;;;;;;;;23.60;45.53;101223.84;4979584;28;4336;-65
2022/08/22 12:44:29;;;;;;;;;;;;;;;23.62;45.37;101226.81;4984375;28;4183;-65
2022/08/22 12:47:14;;;;;;;;;;;;;;;23.63;44.87;101223.25;4972851;28;4130;-65
2022/08/22 12:49:46;;;;;;;;;;;;;;;23.61;45.74;101219.53;4979650;28;4389;-66
2022/08/22 12:52:17;;;;;;;;;;;;;;;23.65;45.22;101213.91;4974915;28;4089;-66
2022/08/22 12:54:47;;;;;;;;;;;;;;;23.69;44.91;101216.97;4965576;28;4110;-77
2022/08/22 12:57:17;;;;;;;;;;;;;;;23.70;45.19;101221.34;4978720;28;4186;-76
2022/08/22 12:59:51;;;;;;;;;;;;;;;23.72;45.33;101217.78;4978000;28;3997;-72
2022/08/22 13:02:18;;;;;;;;;;;;;;;23.72;45.45;101218.50;4968779;28;4353;-72
2022/08/22 13:05:12;;;;;;;;;;;;;;;23.76;45.06;101218.72;4976867;28;5455;-63
2022/08/22 13:07:49;;;;;;;;;;;;;;;23.72;45.62;101212.75;4970719;28;4010;-64
2022/08/22 13:10:17;;;;;;;;;;;;;;;23.73;45.24;101211.34;4965979;28;4116;-64
2022/08/22 13:12:44;;;;;;;;;;;;;;;23.70;45.57;101206.88;4971393;28;4197;-63
2022/08/22 13:15:31;;;;;;;;;;;;;;;23.68;45.93;101203.91;4971152;28;4512;-63
2022/08/22 13:18:03;;;;;;;;;;;;;;;24.17;47.20;101208.66;4977061;28;4083;-72
2022/08/22 13:20:49;;;;;;;;;;;;;;;24.94;43.53;101203.31;4961306;28;4467;-70
2022/08/22 13:23:15;;;;;;;;;;;;;;;25.21;43.57;101202.78;4961509;28;5333;-69
2022/08/22 13:25:53;;;;;;;;;;;;;;;25.28;43.84;101201.53;4969202;28;4262;-68
2022/08/22 13:28:20;;;;;;;;;;;;;;;25.39;43.54;101193.19;4965939;28;4292;-68
2022/08/22 13:30:48;;;;;;;;;;;;;;;25.43;43.92;101187.50;4974694;28;4300;-72
2022/08/22 13:33:20;;;;;;;;;;;;;;;25.42;43.93;101195.44;4962997;28;5475;-71